Time;durP1;ratioP1;P1;durP2;ratioP2;P2;SDS_P1;SDS_P2;PMS_P1;PMS_P2;Temp;Humidity;BMP_temperature;BMP_pressure;BME280_temperature;BME280_humidity;BME280_pressure;Samples;Min_cycle;Max_cycle;Signal;HPM_P1;HPM_P2
2022/08/23 00:02:02;;;;;;;0.38;0.38;;;;;;;16.93;100.00;100612.22;5028918;28;20108;-52
2022/08/23 00:04:38;;;;;;;4.13;0.80;;;;;;;16.93;100.00;100613.03;5026895;28;20116;-56
2022/08/23 00:07:06;;;;;;;0.75;0.30;;;;;;;16.96;100.00;100614.44;5026159;28;20332;-52
2022/08/23 00:09:31;;;;;;;0.73;0.73;;;;;;;16.95;100.00;100618.97;5029779;28;20435;-56
2022/08/23 00:12:06;;;;;;;0.47;0.47;;;;;;;16.96;100.00;100622.47;5023346;28;20041;-53
2022/08/23 00:14:34;;;;;;;0.95;0.68;;;;;;;16.97;100.00;100629.47;5024465;28;20029;-51
2022/08/23 00:16:59;;;;;;;0.50;0.30;;;;;;;16.96;100.00;100627.81;5010875;28;20021;-49
2022/08/23 00:19:25;;;;;;;1.08;1.00;;;;;;;16.97;100.00;100634.84;5024507;28;20416;-53
2022/08/23 00:21:53;;;;;;;0.68;0.68;;;;;;;16.95;100.00;100624.34;5016430;28;20040;-56
2022/08/23 00:24:21;;;;;;;1.02;0.93;;;;;;;16.96;100.00;100627.81;5022637;28;20401;-56
2022/08/23 00:26:51;;;;;;;1.08;0.65;;;;;;;16.95;100.00;100627.03;5019717;28;20112;-55
2022/08/23 00:29:17;;;;;;;0.70;0.70;;;;;;;16.94;100.00;100629.94;5029559;28;20032;-51
2022/08/23 00:31:43;;;;;;;1.00;0.80;;;;;;;16.94;100.00;100621.91;5017801;28;20567;-55
2022/08/23 00:34:08;;;;;;;0.73;0.73;;;;;;;16.92;100.00;100627.47;5021204;28;20113;-58
2022/08/23 00:36:33;;;;;;;0.75;0.63;;;;;;;16.91;100.00;100630.38;5027276;28;20013;-53
2022/08/23 00:39:00;;;;;;;0.63;0.63;;;;;;;16.92;100.00;100630.16;5019732;28;20040;-56
2022/08/23 00:41:27;;;;;;;0.85;0.50;;;;;;;16.93;100.00;100633.66;5021632;28;20097;-56
2022/08/23 00:49:30;;;;;;;0.10;0.10;;;;;;;16.87;100.00;100619.31;5018854;28;20060;-56
2022/08/23 00:51:58;;;;;;;0.17;0.17;;;;;;;16.84;100.00;100621.66;5019502;28;20030;-54
2022/08/23 00:54:27;;;;;;;0.40;0.40;;;;;;;16.84;100.00;100622.47;5019620;28;20026;-55
2022/08/23 00:56:55;;;;;;;0.43;0.20;;;;;;;16.85;100.00;100625.94;5018043;28;20035;-56
2022/08/23 00:59:21;;;;;;;0.30;0.30;;;;;;;16.87;100.00;100623.88;5017095;28;20112;-55
2022/08/23 01:01:48;;;;;;;0.00;0.00;;;;;;;16.85;100.00;100617.91;5017890;28;20395;-56
2022/08/23 01:04:15;;;;;;;0.52;0.10;;;;;;;16.86;100.00;100611.53;5009734;28;20627;-54
2022/08/23 01:06:47;;;;;;;0.35;0.13;;;;;;;16.86;100.00;100606.19;5022356;28;20497;-50
2022/08/23 01:09:16;;;;;;;0.30;0.13;;;;;;;16.85;100.00;100604.53;5021008;28;20032;-57
2022/08/23 01:11:49;;;;;;;0.28;0.28;;;;;;;16.81;100.00;100612.22;5025386;28;20025;-55
2022/08/23 01:14:33;;;;;;;0.13;0.13;;;;;;;16.82;100.00;100616.50;5019241;28;20035;-50
2022/08/23 01:16:58;;;;;;;0.20;0.15;;;;;;;16.82;100.00;100613.84;5017069;28;20045;-54
2022/08/23 01:19:26;;;;;;;0.35;0.35;;;;;;;16.82;100.00;100611.16;5022568;28;20379;-52
2022/08/23 01:22:06;;;;;;;0.10;0.10;;;;;;;16.82;100.00;100610.34;5026496;28;20021;-55
2022/08/23 01:24:32;;;;;;;0.10;0.10;;;;;;;16.82;100.00;100608.47;5015592;28;20133;-52
2022/08/23 01:26:58;;;;;;;1.30;0.47;;;;;;;16.83;100.00;100609.28;5025545;28;20071;-52
2022/08/23 01:29:23;;;;;;;0.00;0.00;;;;;;;16.83;100.00;100606.59;5024254;28;20037;-58
2022/08/23 01:31:49;;;;;;;4.45;1.08;;;;;;;16.84;100.00;100601.03;5021054;28;20348;-56
2022/08/23 01:34:16;;;;;;;0.17;0.10;;;;;;;16.84;100.00;100614.44;5024817;28;20572;-56
2022/08/23 01:36:43;;;;;;;0.10;0.10;;;;;;;16.84;100.00;100608.25;5021005;28;20025;-57
2022/08/23 01:39:09;;;;;;;1.98;0.10;;;;;;;16.83;100.00;100601.25;5026024;28;20028;-55
2022/08/23 01:41:37;;;;;;;0.28;0.20;;;;;;;16.83;100.00;100609.28;5023159;28;20033;-54
2022/08/23 01:44:03;;;;;;;1.08;0.20;;;;;;;16.84;100.00;100610.94;5025081;28;20025;-56
2022/08/23 01:46:28;;;;;;;1.70;0.28;;;;;;;16.84;100.00;100618.97;5023338;28;20384;-53
2022/08/23 01:48:54;;;;;;;0.43;0.17;;;;;;;16.85;100.00;100621.41;5020221;28;20018;-52
2022/08/23 01:51:22;;;;;;;0.43;0.32;;;;;;;16.84;100.00;100617.09;5024798;28;20119;-57
2022/08/23 01:53:49;;;;;;;0.43;0.43;;;;;;;16.85;100.00;100620.59;5018369;28;20018;-57
2022/08/23 01:56:18;;;;;;;0.57;0.57;;;;;;;16.86;100.00;100616.88;5016739;28;20037;-55
2022/08/23 01:58:45;;;;;;;0.50;0.50;;;;;;;16.85;100.00;100610.69;5023556;28;20027;-52
2022/08/23 02:01:10;;;;;;;0.10;0.10;;;;;;;16.83;100.00;100609.28;5020140;28;20033;-55
2022/08/23 02:03:36;;;;;;;1.70;0.55;;;;;;;16.82;100.00;100616.50;5028190;28;20443;-55
2022/08/23 02:06:03;;;;;;;0.90;0.77;;;;;;;16.81;100.00;100614.09;5023656;28;20108;-48
2022/08/23 02:11:20;;;;;;;1.75;1.40;;;;;;;16.81;100.00;100617.56;5024382;28;20492;-55
2022/08/23 02:13:47;;;;;;;1.17;0.93;;;;;;;16.81;100.00;100619.44;5023876;28;20454;-55
2022/08/23 02:16:22;;;;;;;0.70;0.70;;;;;;;16.81;100.00;100614.88;5026337;28;20029;-55
2022/08/23 02:18:49;;;;;;;1.10;0.85;;;;;;;16.82;100.00;100615.69;5027511;28;20084;-54
2022/08/23 02:21:15;;;;;;;1.40;1.10;;;;;;;16.83;100.00;100614.66;5022569;28;20030;-53
2022/08/23 02:23:40;;;;;;;1.75;1.63;;;;;;;16.82;100.00;100619.19;5032370;28;20040;-55
2022/08/23 02:26:05;;;;;;;2.05;0.95;;;;;;;16.83;100.00;100622.69;5028128;28;20048;-52
2022/08/23 02:28:31;;;;;;;1.48;1.17;;;;;;;16.82;100.00;100615.69;5028772;28;20751;-53
2022/08/23 02:30:56;;;;;;;1.13;1.02;;;;;;;16.82;100.00;100621.88;5031226;28;20028;-55
2022/08/23 02:33:22;;;;;;;1.83;1.27;;;;;;;16.81;100.00;100622.13;5029081;28;20273;-55
2022/08/23 02:35:48;;;;;;;1.38;0.85;;;;;;;16.78;100.00;100624.19;5028306;28;20034;-57
2022/08/23 02:38:14;;;;;;;1.50;1.13;;;;;;;16.77;100.00;100625.22;5029376;28;20140;-56
2022/08/23 02:40:40;;;;;;;1.17;1.17;;;;;;;16.77;100.00;100627.06;5026880;28;20116;-55
2022/08/23 02:43:06;;;;;;;1.00;0.93;;;;;;;16.76;100.00;100628.94;5025244;28;20026;-54
2022/08/23 02:45:32;;;;;;;1.75;1.65;;;;;;;16.77;100.00;100635.09;5028887;28;20087;-55
2022/08/23 02:47:58;;;;;;;1.67;1.58;;;;;;;16.75;100.00;100635.34;5029051;28;20056;-56
2022/08/23 02:50:25;;;;;;;3.00;1.02;;;;;;;16.76;100.00;100631.59;5023779;28;20116;-56
2022/08/23 02:52:51;;;;;;;1.33;0.88;;;;;;;16.76;100.00;100626.25;5023981;28;20095;-57
2022/08/23 02:55:17;;;;;;;1.27;1.23;;;;;;;16.77;100.00;100637.78;5028919;28;20032;-57
2022/08/23 02:57:42;;;;;;;0.88;0.88;;;;;;;16.77;100.00;100635.09;5021635;28;20022;-57
2022/08/23 03:00:11;;;;;;;0.82;0.73;;;;;;;16.77;100.00;100625.22;5025462;28;20092;-53
2022/08/23 03:02:37;;;;;;;1.45;1.35;;;;;;;16.77;100.00;100627.91;5022293;28;20513;-56
2022/08/23 03:05:06;;;;;;;1.15;1.05;;;;;;;16.77;100.00;100640.44;5026490;28;20029;-52
2022/08/23 03:07:32;;;;;;;1.15;1.05;;;;;;;16.76;100.00;100630.78;5024151;28;20056;-53
2022/08/23 03:09:57;;;;;;;2.38;1.20;;;;;;;16.77;100.00;100635.09;5028052;28;20451;-56
2022/08/23 03:12:23;;;;;;;1.85;1.00;;;;;;;16.77;100.00;100635.94;5026851;28;20053;-57
2022/08/23 03:14:50;;;;;;;0.70;0.70;;;;;;;16.76;100.00;100630.78;5029932;28;20087;-56
2022/08/23 03:17:16;;;;;;;2.17;1.35;;;;;;;16.76;100.00;100634.28;5035891;28;20146;-56
2022/08/23 03:19:42;;;;;;;1.00;0.88;;;;;;;16.76;100.00;100638.81;5022093;28;20026;-56
2022/08/23 03:22:07;;;;;;;2.70;1.48;;;;;;;16.74;100.00;100639.03;5023327;28;20196;-51
2022/08/23 03:24:32;;;;;;;1.20;1.05;;;;;;;16.71;100.00;100636.81;5020573;28;20026;-56
2022/08/23 03:26:58;;;;;;;2.80;1.42;;;;;;;16.72;100.00;100637.63;5027024;28;20279;-54
2022/08/23 03:29:24;;;;;;;2.90;1.17;;;;;;;16.71;100.00;100636.00;5026480;28;20134;-56
2022/08/23 03:31:50;;;;;;;3.92;1.67;;;;;;;16.71;100.00;100644.84;5024341;28;20100;-56
2022/08/23 03:34:16;;;;;;;1.35;1.30;;;;;;;16.73;100.00;100647.31;5018095;28;20083;-57
2022/08/23 03:36:41;;;;;;;2.55;1.42;;;;;;;16.72;100.00;100638.44;5026220;28;20037;-55
2022/08/23 03:39:07;;;;;;;3.47;1.30;;;;;;;16.71;100.00;100639.50;5026290;28;20068;-51
2022/08/23 03:41:32;;;;;;;5.30;2.40;;;;;;;16.72;100.00;100641.13;5022747;28;20029;-57
2022/08/23 03:43:57;;;;;;;3.55;1.13;;;;;;;16.72;100.00;100638.44;5021953;28;20022;-52
2022/08/23 03:46:23;;;;;;;1.80;1.70;;;;;;;16.72;100.00;100640.31;5018021;28;20053;-56
2022/08/23 03:48:50;;;;;;;1.98;1.52;;;;;;;16.74;100.00;100633.69;5023616;28;20475;-53
2022/08/23 03:51:16;;;;;;;2.25;1.40;;;;;;;16.73;100.00;100632.06;5025620;28;20033;-55
2022/08/23 03:53:42;;;;;;;2.30;1.90;;;;;;;16.73;100.00;100637.41;5024042;28;20052;-54
2022/08/23 03:56:08;;;;;;;2.13;1.45;;;;;;;16.75;100.00;100634.50;5028114;28;20022;-50
2022/08/23 03:58:33;;;;;;;2.45;2.10;;;;;;;16.74;100.00;100647.06;5021139;28;20033;-55
2022/08/23 04:00:58;;;;;;;3.20;2.35;;;;;;;16.75;100.00;100645.22;5028974;28;20017;-57
2022/08/23 04:03:24;;;;;;;2.53;2.33;;;;;;;16.75;100.00;100642.53;5027025;28;20029;-51
2022/08/23 04:05:49;;;;;;;3.85;3.10;;;;;;;16.74;100.00;100646.25;5024928;28;20083;-57
2022/08/23 04:08:15;;;;;;;4.90;3.50;;;;;;;16.74;100.00;100640.91;5024234;28;20103;-56
2022/08/23 04:10:40;;;;;;;6.63;4.30;;;;;;;16.73;100.00;100644.66;5027090;28;20017;-56
2022/08/23 04:13:07;;;;;;;5.35;3.10;;;;;;;16.72;100.00;100634.97;5018448;28;20070;-55
2022/08/23 04:15:33;;;;;;;5.25;2.88;;;;;;;16.71;100.00;100631.47;5023580;28;20034;-53
2022/08/23 04:17:59;;;;;;;4.13;3.60;;;;;;;16.73;100.00;100634.75;5024811;28;20075;-56
2022/08/23 04:20:24;;;;;;;3.22;2.92;;;;;;;16.73;100.00;100640.09;5023513;28;20310;-55
2022/08/23 04:22:54;;;;;;;4.97;3.28;;;;;;;16.73;100.00;100641.97;5025751;28;20104;-53
2022/08/23 04:25:20;;;;;;;5.40;3.53;;;;;;;16.72;100.00;100646.47;5022121;28;20333;-54
2022/08/23 04:27:45;;;;;;;2.67;2.38;;;;;;;16.72;100.00;100649.16;5026876;28;20112;-52
2022/08/23 04:30:11;;;;;;;3.35;3.03;;;;;;;16.73;100.00;100655.34;5028011;28;20032;-49
2022/08/23 04:32:36;;;;;;;6.25;3.58;;;;;;;16.73;100.00;100658.03;5017057;28;20018;-56
2022/08/23 04:35:02;;;;;;;5.78;4.03;;;;;;;16.72;100.00;100659.88;5022270;28;20494;-57
2022/08/23 04:37:27;;;;;;;5.70;2.63;;;;;;;16.74;100.00;100657.78;5025386;28;20099;-52
2022/08/23 04:42:36;;;;;;;3.80;2.10;;;;;;;16.74;100.00;100663.13;5020925;28;20375;-56
2022/08/23 04:45:02;;;;;;;4.60;3.08;;;;;;;16.72;100.00;100670.56;5020200;28;20033;-54
2022/08/23 04:47:28;;;;;;;9.90;3.45;;;;;;;16.72;100.00;100667.91;5023353;28;20071;-51
2022/08/23 04:49:53;;;;;;;3.10;2.30;;;;;;;16.72;100.00;100669.75;5018588;28;20087;-54
2022/08/23 04:52:19;;;;;;;3.33;2.40;;;;;;;16.71;100.00;100674.31;5024990;28;20036;-58
2022/08/23 04:54:45;;;;;;;4.85;3.70;;;;;;;16.70;100.00;100670.00;5025866;28;20025;-57
2022/08/23 04:57:11;;;;;;;4.35;2.80;;;;;;;16.68;100.00;100672.09;5022177;28;20048;-57
2022/08/23 04:59:36;;;;;;;4.35;3.05;;;;;;;16.68;100.00;100674.75;5025122;28;20022;-57
2022/08/23 05:02:01;;;;;;;2.80;2.40;;;;;;;16.67;100.00;100673.13;5020433;28;20061;-58
2022/08/23 05:04:27;;;;;;;4.65;3.50;;;;;;;16.67;100.00;100670.44;5022042;28;20029;-56
2022/08/23 05:06:52;;;;;;;3.83;2.42;;;;;;;16.68;100.00;100685.47;5019093;28;20030;-57
2022/08/23 05:09:18;;;;;;;7.07;2.92;;;;;;;16.68;100.00;100680.13;5029230;28;20022;-55
2022/08/23 05:11:44;;;;;;;4.43;2.97;;;;;;;16.69;100.00;100680.94;5022256;28;20583;-56
2022/08/23 05:14:09;;;;;;;5.03;3.33;;;;;;;16.67;100.00;100683.81;5029186;28;20120;-53
2022/08/23 05:16:35;;;;;;;3.85;2.97;;;;;;;16.67;100.00;100686.50;5020724;28;20056;-55
2022/08/23 05:19:00;;;;;;;4.72;3.22;;;;;;;16.66;100.00;100692.91;5019231;28;20112;-52
2022/08/23 05:21:26;;;;;;;5.13;3.63;;;;;;;16.67;100.00;100696.41;5027209;28;20049;-54
2022/08/23 05:23:51;;;;;;;5.22;3.83;;;;;;;16.68;100.00;100692.69;5019265;28;20037;-56
2022/08/23 05:26:17;;;;;;;3.55;2.88;;;;;;;16.69;100.00;100705.03;5024043;28;20041;-55
2022/08/23 05:28:45;;;;;;;7.32;3.78;;;;;;;16.69;100.00;100702.34;5026475;28;20593;-50
2022/08/23 05:31:14;;;;;;;6.55;3.05;;;;;;;16.70;100.00;100718.19;5016890;28;20120;-49
2022/08/23 05:33:41;;;;;;;5.70;3.47;;;;;;;16.71;100.00;100719.81;5025118;28;20026;-52
2022/08/23 05:36:09;;;;;;;5.90;3.25;;;;;;;16.74;100.00;100722.03;5023664;28;20037;-56
2022/08/23 05:38:35;;;;;;;3.55;2.45;;;;;;;16.76;100.00;100724.50;5017959;28;20027;-54
2022/08/23 05:41:01;;;;;;;4.25;2.88;;;;;;;16.77;100.00;100718.94;5021418;28;20037;-55
2022/08/23 05:43:27;;;;;;;4.35;3.03;;;;;;;16.78;100.00;100717.91;5029153;28;20076;-50
2022/08/23 05:46:09;;;;;;;4.88;3.80;;;;;;;16.82;100.00;100720.94;5026006;28;20590;-53
2022/08/23 05:48:35;;;;;;;3.15;2.15;;;;;;;16.85;100.00;100722.34;5029708;28;20029;-57
2022/08/23 05:51:31;;;;;;;2.75;2.47;;;;;;;16.88;100.00;100717.38;5023730;28;20104;-57
2022/08/23 05:54:00;;;;;;;8.00;3.53;;;;;;;16.89;100.00;100721.69;5029830;28;20037;-57
2022/08/23 05:56:52;;;;;;;4.22;3.35;;;;;;;16.92;100.00;100707.03;5014345;28;20145;-57
2022/08/23 05:59:19;;;;;;;3.67;2.30;;;;;;;16.93;100.00;100714.00;5028804;28;20060;-55
2022/08/23 06:01:44;;;;;;;2.50;2.22;;;;;;;16.97;100.00;100724.03;5028827;28;20498;-55
2022/08/23 06:04:11;;;;;;;2.45;2.25;;;;;;;17.02;100.00;100728.72;5023089;28;20117;-52
2022/08/23 06:06:37;;;;;;;3.15;2.10;;;;;;;17.09;100.00;100726.78;5023353;28;20025;-57
2022/08/23 06:09:05;;;;;;;5.93;2.83;;;;;;;17.15;100.00;100728.53;5029278;28;20495;-57
2022/08/23 06:11:31;;;;;;;6.32;2.55;;;;;;;17.21;100.00;100727.59;5025193;28;20104;-55
2022/08/23 06:13:59;;;;;;;4.22;2.42;;;;;;;17.31;100.00;100724.38;5024551;28;20076;-56
2022/08/23 06:16:28;;;;;;;3.97;3.58;;;;;;;17.36;100.00;100721.00;5030015;28;20338;-53
2022/08/23 06:18:54;;;;;;;4.20;2.88;;;;;;;17.38;100.00;100717.06;5019752;28;20030;-51
2022/08/23 06:21:20;;;;;;;4.18;2.88;;;;;;;17.41;100.00;100716.59;5019189;28;20133;-55
2022/08/23 06:23:48;;;;;;;3.50;2.80;;;;;;;17.40;100.00;100706.91;5026271;28;20034;-53
2022/08/23 06:26:15;;;;;;;3.67;2.67;;;;;;;17.46;100.00;100712.41;5025400;28;20401;-55
2022/08/23 06:28:43;;;;;;;3.03;2.08;;;;;;;17.51;100.00;100712.53;5031360;28;20025;-57
2022/08/23 06:31:09;;;;;;;3.70;1.83;;;;;;;17.54;100.00;100709.38;5031772;28;20037;-57
2022/08/23 06:33:36;;;;;;;3.70;2.75;;;;;;;17.58;100.00;100710.53;5032895;28;20110;-57
2022/08/23 06:36:08;;;;;;;4.47;3.05;;;;;;;17.63;100.00;100713.34;5031106;28;20183;-54
2022/08/23 06:38:33;;;;;;;;;;;;;;;17.66;100.00;100716.38;5022906;28;20091;-57
2022/08/23 06:41:03;;;;;;;4.28;3.40;;;;;;;17.71;100.00;100726.44;5031188;28;20003;-54
2022/08/23 06:43:29;;;;;;;3.95;2.58;;;;;;;17.70;100.00;100713.25;5024846;28;20027;-55
2022/08/23 06:46:04;;;;;;;4.20;2.90;;;;;;;17.71;100.00;100720.22;5025261;28;20335;-57
2022/08/23 06:48:29;;;;;;;2.63;2.42;;;;;;;17.72;100.00;100721.88;5031519;28;20052;-57
2022/08/23 06:50:55;;;;;;;3.75;2.55;;;;;;;17.70;100.00;100711.38;5028374;28;20378;-53
2022/08/23 06:53:20;;;;;;;3.60;2.08;;;;;;;17.72;100.00;100711.97;5026263;28;20025;-55
2022/08/23 06:55:45;;;;;;;2.08;1.52;;;;;;;17.72;100.00;100709.28;5023968;28;20037;-56
2022/08/23 06:58:11;;;;;;;2.38;2.13;;;;;;;17.74;100.00;100703.69;5017234;28;20065;-56
2022/08/23 07:00:36;;;;;;;2.47;2.22;;;;;;;17.75;100.00;100702.63;5031267;28;20335;-48
2022/08/23 07:03:02;;;;;;;1.77;1.65;;;;;;;17.84;100.00;100701.28;5021211;28;20394;-52
2022/08/23 07:05:27;;;;;;;4.03;1.30;;;;;;;17.97;100.00;100700.22;5021423;28;20034;-51
2022/08/23 07:07:53;;;;;;;1.65;0.95;;;;;;;18.08;100.00;100694.03;5020673;28;20479;-56
2022/08/23 07:10:18;;;;;;;2.25;0.63;;;;;;;18.14;100.00;100687.69;5028433;28;20720;-53
2022/08/23 07:12:43;;;;;;;0.90;0.77;;;;;;;18.20;100.00;100691.31;5025426;28;20041;-56
2022/08/23 07:15:11;;;;;;;0.93;0.43;;;;;;;18.24;100.00;100695.97;5016476;28;20030;-53
2022/08/23 07:17:36;;;;;;;0.95;0.68;;;;;;;18.23;100.00;100682.81;5030302;28;20053;-56
2022/08/23 07:20:02;;;;;;;0.85;0.45;;;;;;;18.22;100.00;100689.19;5021253;28;21181;-51
2022/08/23 07:22:28;;;;;;;1.35;0.82;;;;;;;18.15;100.00;100678.63;5024130;28;20570;-56
2022/08/23 07:24:53;;;;;;;2.28;1.02;;;;;;;18.05;100.00;100676.53;5017133;28;20034;-57
2022/08/23 07:27:18;;;;;;;1.02;0.93;;;;;;;18.06;100.00;100685.38;5020562;28;20029;-57
2022/08/23 07:29:44;;;;;;;2.35;0.70;;;;;;;18.04;100.00;100677.59;5017455;28;20028;-55
2022/08/23 07:32:09;;;;;;;1.23;0.77;;;;;;;18.11;100.00;100687.38;5023782;28;20113;-52
2022/08/23 07:34:35;;;;;;;2.08;0.38;;;;;;;18.18;100.00;100688.06;5023468;28;20040;-57
2022/08/23 07:37:01;;;;;;;1.50;1.10;;;;;;;18.29;100.00;100682.66;5021097;28;20475;-53
2022/08/23 07:39:26;;;;;;;0.22;0.15;;;;;;;18.40;100.00;100681.00;5010363;28;20052;-54
2022/08/23 07:41:52;;;;;;;0.38;0.20;;;;;;;18.47;100.00;100670.13;5008343;28;20057;-51
2022/08/23 07:44:17;;;;;;;0.30;0.20;;;;;;;18.46;100.00;100657.75;5012993;28;20032;-54
2022/08/23 07:46:44;;;;;;;0.57;0.10;;;;;;;18.56;100.00;100667.88;5014742;28;20044;-57
2022/08/23 07:49:11;;;;;;;1.10;0.32;;;;;;;18.59;100.00;100664.72;5025515;28;20033;-55
2022/08/23 07:51:38;;;;;;;2.05;0.10;;;;;;;18.61;100.00;100665.28;5020245;28;20577;-54
2022/08/23 07:54:08;;;;;;;0.10;0.10;;;;;;;18.64;100.00;100667.47;5021546;28;20378;-56
2022/08/23 07:56:34;;;;;;;0.38;0.10;;;;;;;18.57;100.00;100664.16;5019913;28;20061;-56
2022/08/23 07:59:00;;;;;;;0.95;0.10;;;;;;;18.60;100.00;100667.16;5018496;28;20493;-56
2022/08/23 08:01:27;;;;;;;0.63;0.05;;;;;;;18.61;100.00;100670.66;5019196;28;20029;-53
2022/08/23 08:03:55;;;;;;;0.22;0.20;;;;;;;18.64;100.00;100672.84;5018916;28;20554;-55
2022/08/23 08:06:22;;;;;;;0.95;0.43;;;;;;;18.59;100.00;100665.53;5021223;28;20533;-56
2022/08/23 08:08:48;;;;;;;0.60;0.10;;;;;;;18.72;100.00;100673.31;5020250;28;20486;-55
2022/08/23 08:11:15;;;;;;;0.52;0.17;;;;;;;18.86;100.00;100673.84;5021549;28;20048;-53
2022/08/23 08:13:43;;;;;;;0.40;0.03;;;;;;;18.94;100.00;100672.63;5017928;28;20052;-53
2022/08/23 08:16:09;;;;;;;0.30;0.00;;;;;;;19.10;100.00;100681.78;5019918;28;20433;-52
2022/08/23 08:18:36;;;;;;;2.15;0.10;;;;;;;19.14;100.00;100659.56;5015491;28;20439;-52
2022/08/23 08:21:03;;;;;;;0.03;0.00;;;;;;;19.24;100.00;100668.84;5014068;28;20491;-55
2022/08/23 08:23:28;;;;;;;0.90;0.10;;;;;;;19.37;100.00;100668.53;5017726;28;20105;-54
2022/08/23 08:26:06;;;;;;;0.55;0.00;;;;;;;19.45;100.00;100670.00;5021165;28;20036;-56
2022/08/23 08:28:32;;;;;;;0.10;0.10;;;;;;;19.54;100.00;100679.25;5025097;28;20379;-53
2022/08/23 08:30:58;;;;;;;1.10;0.22;;;;;;;19.56;100.00;100679.84;5024053;28;20022;-53
2022/08/23 08:33:27;;;;;;;0.22;0.05;;;;;;;19.65;100.00;100683.75;5021579;28;20040;-56
2022/08/23 08:35:53;;;;;;;1.58;0.00;;;;;;;19.81;100.00;100682.13;5025138;28;20108;-55
2022/08/23 08:38:19;;;;;;;0.20;0.10;;;;;;;19.82;100.00;100671.09;5022303;28;20116;-53
2022/08/23 08:40:58;;;;;;;0.10;0.05;;;;;;;19.93;100.00;100679.31;5023919;28;20029;-53
2022/08/23 08:43:36;;;;;;;0.32;0.32;;;;;;;20.02;100.00;100675.97;5024801;28;20029;-54
2022/08/23 08:46:22;;;;;;;1.10;0.00;;;;;;;20.19;100.00;100665.16;5020039;28;20076;-49
2022/08/23 08:48:52;;;;;;;0.00;0.00;;;;;;;20.29;100.00;100667.16;5021937;28;20061;-55
2022/08/23 08:51:36;;;;;;;0.30;0.10;;;;;;;20.32;100.00;100676.63;5025636;28;20029;-53
2022/08/23 08:54:07;;;;;;;0.30;0.10;;;;;;;20.40;100.00;100676.16;5020160;28;20048;-54
2022/08/23 08:56:36;;;;;;;0.43;0.08;;;;;;;20.46;100.00;100670.56;5024738;28;20029;-53
2022/08/23 08:59:06;;;;;;;0.43;0.10;;;;;;;20.47;100.00;100674.91;5024374;28;20052;-49
2022/08/23 09:01:35;;;;;;;0.28;0.10;;;;;;;20.43;100.00;100670.28;5023119;28;20029;-49
2022/08/23 09:04:01;;;;;;;0.35;0.35;;;;;;;20.27;100.00;100667.41;5022041;28;20040;-53
2022/08/23 09:06:35;;;;;;;0.20;0.10;;;;;;;20.32;100.00;100673.94;5022987;28;20037;-54
2022/08/23 09:09:11;;;;;;;0.52;0.20;;;;;;;20.46;100.00;100675.16;5024761;28;20057;-54
2022/08/23 09:11:40;;;;;;;1.10;0.38;;;;;;;20.49;100.00;100669.25;5027020;28;20048;-54
2022/08/23 09:14:30;;;;;;;3.13;0.10;;;;;;;20.59;100.00;100669.41;5024059;28;20547;-51
2022/08/23 09:17:19;;;;;;;0.10;0.00;;;;;;;20.43;100.00;100662.19;5016005;28;20342;-48
2022/08/23 09:19:49;;;;;;;0.17;0.00;;;;;;;20.70;100.00;100664.94;5019452;28;20030;-56
2022/08/23 09:22:27;;;;;;;0.22;0.10;;;;;;;21.43;100.00;100662.66;5018258;28;20045;-53
2022/08/23 09:24:55;;;;;;;0.20;0.20;;;;;;;21.95;100.00;100658.38;5018512;28;20426;-55
2022/08/23 09:27:21;;;;;;;0.00;0.00;;;;;;;21.92;100.00;100651.63;5016295;28;20026;-56
2022/08/23 09:29:54;;;;;;;0.10;0.00;;;;;;;22.18;100.00;100649.84;5014699;28;20037;-50
2022/08/23 09:32:35;;;;;;;0.73;0.05;;;;;;;22.02;100.00;100652.72;5017101;28;20022;-54
2022/08/23 09:35:15;;;;;;;1.70;0.10;;;;;;;21.74;100.00;100652.06;5014817;28;20390;-56
2022/08/23 09:38:30;;;;;;;0.30;0.10;;;;;;;21.80;100.00;100658.31;5007555;28;20026;-57
2022/08/23 09:40:55;;;;;;;0.00;0.00;;;;;;;21.95;100.00;100648.38;5015810;28;20038;-52
2022/08/23 09:43:25;;;;;;;0.03;0.03;;;;;;;22.23;100.00;100648.25;5020603;28;20088;-52
2022/08/23 09:45:50;;;;;;;0.10;0.00;;;;;;;22.37;100.00;100639.41;5016582;28;20406;-53
2022/08/23 09:48:33;;;;;;;0.30;0.30;;;;;;;22.29;100.00;100636.41;5019552;28;20052;-52
2022/08/23 09:51:25;;;;;;;0.28;0.10;;;;;;;22.40;100.00;100633.47;5019008;28;20044;-54
2022/08/23 09:54:16;;;;;;;0.05;0.00;;;;;;;22.64;100.00;100622.19;5010226;28;20052;-55
2022/08/23 09:56:48;;;;;;;0.45;0.10;;;;;;;22.76;100.00;100627.31;5009040;28;20112;-50
2022/08/23 09:59:32;;;;;;;0.60;0.00;;;;;;;23.03;100.00;100627.94;5017001;28;20444;-56
2022/08/23 10:01:59;;;;;;;0.43;0.00;;;;;;;23.02;100.00;100628.97;5018731;28;20091;-52
2022/08/23 10:04:27;;;;;;;3.95;1.23;;;;;;;22.81;100.00;100628.13;5015571;28;20491;-54
2022/08/23 10:06:53;;;;;;;1.20;0.00;;;;;;;23.16;100.00;100633.88;5014211;28;20029;-54
2022/08/23 10:09:31;;;;;;;0.68;0.17;;;;;;;23.37;100.00;100627.34;5015379;28;20022;-54
2022/08/23 10:11:58;;;;;;;0.20;0.08;;;;;;;23.42;100.00;100624.66;5020004;28;20057;-52
2022/08/23 10:14:27;;;;;;;5.35;0.65;;;;;;;23.69;100.00;100627.00;5018393;28;20431;-49
2022/08/23 10:17:24;;;;;;;0.73;0.00;;;;;;;23.97;100.00;100622.09;5019129;28;20501;-52
2022/08/23 10:20:02;;;;;;;0.68;0.00;;;;;;;24.34;100.00;100618.09;5020762;28;20037;-50
2022/08/23 10:22:57;;;;;;;0.15;0.00;;;;;;;24.73;100.00;100615.47;5017135;28;20390;-57
2022/08/23 10:25:33;;;;;;;0.00;0.00;;;;;;;24.78;100.00;100610.00;5017293;28;20049;-56
2022/08/23 10:31:06;;;;;;;0.43;0.13;;;;;;;24.05;100.00;100624.22;5020674;28;20437;-55
2022/08/23 10:33:47;;;;;;;0.38;0.00;;;;;;;23.58;100.00;100633.53;5016655;28;20018;-54
2022/08/23 10:36:27;;;;;;;0.15;0.10;;;;;;;23.63;100.00;100635.44;5014549;28;20038;-55
2022/08/23 10:39:00;;;;;;;1.50;0.10;;;;;;;23.52;100.00;100634.66;5025979;28;20124;-52
2022/08/23 10:41:46;;;;;;;1.88;0.10;;;;;;;23.17;100.00;100628.19;5029256;28;20033;-56
2022/08/23 10:44:28;;;;;;;0.20;0.08;;;;;;;23.10;100.00;100633.03;5022898;28;20033;-51
2022/08/23 10:47:10;;;;;;;;;;;;;;;23.10;100.00;100629.53;5024584;28;20033;-55
2022/08/23 10:49:38;;;;;;;0.35;0.00;;;;;;;23.11;100.00;100633.88;5017722;28;19921;-55
2022/08/23 10:52:08;;;;;;;0.77;0.10;;;;;;;23.15;100.00;100638.44;5021692;28;20034;-53
2022/08/23 10:54:58;;;;;;;0.20;0.20;;;;;;;23.18;100.00;100637.09;5015161;28;20038;-53
2022/08/23 10:57:31;;;;;;;0.30;0.00;;;;;;;23.13;100.00;100640.63;5023308;28;20037;-51
2022/08/23 10:59:58;;;;;;;0.75;0.00;;;;;;;22.88;100.00;100646.00;5014519;28;20033;-55
2022/08/23 11:02:49;;;;;;;0.10;0.00;;;;;;;22.59;100.00;100657.31;5020570;28;20045;-51
2022/08/23 11:05:24;;;;;;;0.10;0.08;;;;;;;22.42;100.00;100652.94;5024619;28;20045;-49
2022/08/23 11:08:00;;;;;;;0.45;0.10;;;;;;;22.45;100.00;100661.56;5011017;28;20065;-54
2022/08/23 11:10:38;;;;;;;0.45;0.20;;;;;;;22.51;100.00;100655.09;5021861;28;20045;-58
2022/08/23 11:13:12;;;;;;;1.42;0.10;;;;;;;22.60;100.00;100669.72;5015090;28;20088;-56
2022/08/23 11:15:53;;;;;;;0.22;0.22;;;;;;;22.63;100.00;100659.19;5027709;28;20575;-53
2022/08/23 11:18:28;;;;;;;0.68;0.38;;;;;;;22.45;100.00;100662.38;5017776;28;20032;-52
2022/08/23 11:20:58;;;;;;;0.05;0.00;;;;;;;22.69;100.00;100659.19;5022781;28;20376;-55
2022/08/23 11:23:53;;;;;;;0.05;0.05;;;;;;;23.15;100.00;100643.84;5019917;28;20041;-54
2022/08/23 11:26:21;;;;;;;0.20;0.00;;;;;;;23.46;100.00;100652.75;5016425;28;20034;-53
2022/08/23 11:28:49;;;;;;;0.00;0.00;;;;;;;24.00;100.00;100643.19;5026979;28;20037;-52
2022/08/23 11:31:41;;;;;;;0.52;0.17;;;;;;;24.13;100.00;100639.06;5016927;28;20824;-52
2022/08/23 11:34:18;;;;;;;0.35;0.35;;;;;;;24.01;100.00;100644.81;5018479;28;20049;-55
2022/08/23 11:37:18;;;;;;;0.30;0.13;;;;;;;23.94;100.00;100642.41;5023240;28;20030;-49
2022/08/23 11:40:14;;;;;;;0.00;0.00;;;;;;;23.67;100.00;100634.63;5011259;28;20507;-54
2022/08/23 11:42:48;;;;;;;0.28;0.28;;;;;;;23.61;100.00;100641.09;5023270;28;20173;-56